sensor_id;sensor_type;location;lat;lon;timestamp;P1;durP1;ratioP1;P2;durP2;ratioP2
12222;SDS011;6174;49.058;8.524;2023-01-09T05:00:21;1.03;;;0.70;;
12222;SDS011;6174;49.058;8.524;2023-01-09T05:02:48;1.10;;;0.50;;
12222;SDS011;6174;49.058;8.524;2023-01-09T05:05:14;0.90;;;0.60;;
12222;SDS011;6174;49.058;8.524;2023-01-09T05:07:41;1.17;;;0.67;;
12222;SDS011;6174;49.058;8.524;2023-01-09T05:10:08;0.60;;;0.60;;
12222;SDS011;6174;49.058;8.524;2023-01-09T05:12:36;1.50;;;0.67;;
12222;SDS011;6174;49.058;8.524;2023-01-09T05:15:04;0.67;;;0.63;;
12222;SDS011;6174;49.058;8.524;2023-01-09T05:17:34;0.93;;;0.60;;
12222;SDS011;6174;49.058;8.524;2023-01-09T05:20:01;0.73;;;0.73;;
12222;SDS011;6174;49.058;8.524;2023-01-09T05:22:28;1.10;;;1.00;;
12222;SDS011;6174;49.058;8.524;2023-01-09T05:24:55;0.77;;;0.77;;
12222;SDS011;6174;49.058;8.524;2023-01-09T05:27:21;1.03;;;0.90;;
12222;SDS011;6174;49.058;8.524;2023-01-09T05:29:48;1.73;;;0.70;;
12222;SDS011;6174;49.058;8.524;2023-01-09T05:32:15;0.40;;;0.40;;
12222;SDS011;6174;49.058;8.524;2023-01-09T05:34:43;0.57;;;0.57;;
12222;SDS011;6174;49.058;8.524;2023-01-09T05:37:10;0.70;;;0.47;;
12222;SDS011;6174;49.058;8.524;2023-01-09T05:39:37;0.40;;;0.30;;
12222;SDS011;6174;49.058;8.524;2023-01-09T05:42:03;1.07;;;0.60;;
12222;SDS011;6174;49.058;8.524;2023-01-09T05:44:30;1.60;;;1.10;;
12222;SDS011;6174;49.058;8.524;2023-01-09T05:46:57;1.60;;;0.60;;
12222;SDS011;6174;49.058;8.524;2023-01-09T05:49:24;3.10;;;0.93;;
12222;SDS011;6174;49.058;8.524;2023-01-09T05:51:52;0.50;;;0.50;;
12222;SDS011;6174;49.058;8.524;2023-01-09T05:54:18;1.27;;;0.63;;
12222;SDS011;6174;49.058;8.524;2023-01-09T05:56:45;2.07;;;0.50;;
12222;SDS011;6174;49.058;8.524;2023-01-09T05:59:12;0.57;;;0.43;;
12222;SDS011;6174;49.058;8.524;2023-01-09T06:01:39;0.80;;;0.50;;
12222;SDS011;6174;49.058;8.524;2023-01-09T06:04:06;0.70;;;0.33;;
12222;SDS011;6174;49.058;8.524;2023-01-09T06:06:32;0.73;;;0.50;;
12222;SDS011;6174;49.058;8.524;2023-01-09T06:09:00;1.23;;;0.40;;
12222;SDS011;6174;49.058;8.524;2023-01-09T06:11:27;1.87;;;0.50;;
12222;SDS011;6174;49.058;8.524;2023-01-09T06:13:54;1.57;;;0.60;;
12222;SDS011;6174;49.058;8.524;2023-01-09T06:16:21;0.53;;;0.50;;
12222;SDS011;6174;49.058;8.524;2023-01-09T06:18:48;0.30;;;0.30;;
12222;SDS011;6174;49.058;8.524;2023-01-09T06:21:15;0.40;;;0.30;;
12222;SDS011;6174;49.058;8.524;2023-01-09T06:23:42;2.80;;;0.60;;
12222;SDS011;6174;49.058;8.524;2023-01-09T06:26:10;0.50;;;0.50;;
12222;SDS011;6174;49.058;8.524;2023-01-09T06:28:37;0.87;;;0.50;;
12222;SDS011;6174;49.058;8.524;2023-01-09T06:31:04;0.70;;;0.40;;
12222;SDS011;6174;49.058;8.524;2023-01-09T06:33:31;0.90;;;0.60;;
12222;SDS011;6174;49.058;8.524;2023-01-09T06:35:57;0.97;;;0.40;;
12222;SDS011;6174;49.058;8.524;2023-01-09T06:38:24;1.37;;;0.50;;
12222;SDS011;6174;49.058;8.524;2023-01-09T06:40:51;1.00;;;0.67;;
12222;SDS011;6174;49.058;8.524;2023-01-09T06:43:19;1.37;;;0.50;;
12222;SDS011;6174;49.058;8.524;2023-01-09T06:45:46;1.77;;;0.60;;
12222;SDS011;6174;49.058;8.524;2023-01-09T06:48:13;1.37;;;0.70;;
12222;SDS011;6174;49.058;8.524;2023-01-09T06:50:40;2.93;;;0.87;;
12222;SDS011;6174;49.058;8.524;2023-01-09T06:53:07;1.77;;;0.80;;
12222;SDS011;6174;49.058;8.524;2023-01-09T06:55:34;0.70;;;0.50;;
12222;SDS011;6174;49.058;8.524;2023-01-09T06:58:01;2.07;;;1.00;;
12222;SDS011;6174;49.058;8.524;2023-01-09T07:00:29;1.73;;;0.87;;
12222;SDS011;6174;49.058;8.524;2023-01-09T07:02:56;1.33;;;0.83;;
12222;SDS011;6174;49.058;8.524;2023-01-09T07:05:23;1.67;;;0.80;;
12222;SDS011;6174;49.058;8.524;2023-01-09T07:07:50;2.93;;;0.80;;
12222;SDS011;6174;49.058;8.524;2023-01-09T07:10:17;2.60;;;0.70;;
12222;SDS011;6174;49.058;8.524;2023-01-09T07:12:43;1.97;;;0.80;;
12222;SDS011;6174;49.058;8.524;2023-01-09T07:15:10;2.93;;;0.80;;
12222;SDS011;6174;49.058;8.524;2023-01-09T07:17:38;1.77;;;0.83;;
12222;SDS011;6174;49.058;8.524;2023-01-09T07:20:05;1.43;;;0.77;;
12222;SDS011;6174;49.058;8.524;2023-01-09T07:22:33;2.40;;;0.60;;
12222;SDS011;6174;49.058;8.524;2023-01-09T07:25:00;2.17;;;1.10;;
12222;SDS011;6174;49.058;8.524;2023-01-09T07:27:27;3.67;;;1.20;;
12222;SDS011;6174;49.058;8.524;2023-01-09T07:29:54;1.90;;;1.00;;
12222;SDS011;6174;49.058;8.524;2023-01-09T07:32:20;3.67;;;0.90;;
12222;SDS011;6174;49.058;8.524;2023-01-09T07:34:49;3.07;;;1.73;;
12222;SDS011;6174;49.058;8.524;2023-01-09T07:37:15;1.80;;;0.63;;
12222;SDS011;6174;49.058;8.524;2023-01-09T07:39:42;2.40;;;1.13;;
12222;SDS011;6174;49.058;8.524;2023-01-09T07:42:10;3.10;;;0.90;;
12222;SDS011;6174;49.058;8.524;2023-01-09T07:44:36;3.60;;;1.10;;
12222;SDS011;6174;49.058;8.524;2023-01-09T07:47:06;2.70;;;0.90;;
12222;SDS011;6174;49.058;8.524;2023-01-09T07:49:33;2.27;;;1.37;;
12222;SDS011;6174;49.058;8.524;2023-01-09T07:52:01;2.37;;;0.87;;
12222;SDS011;6174;49.058;8.524;2023-01-09T07:54:31;3.20;;;1.10;;
12222;SDS011;6174;49.058;8.524;2023-01-09T07:56:58;4.07;;;1.33;;
12222;SDS011;6174;49.058;8.524;2023-01-09T07:59:24;2.27;;;0.93;;
12222;SDS011;6174;49.058;8.524;2023-01-09T08:01:52;1.63;;;0.80;;
12222;SDS011;6174;49.058;8.524;2023-01-09T08:04:19;2.33;;;1.13;;
12222;SDS011;6174;49.058;8.524;2023-01-09T08:06:46;2.00;;;1.17;;
12222;SDS011;6174;49.058;8.524;2023-01-09T08:09:14;2.67;;;0.87;;
12222;SDS011;6174;49.058;8.524;2023-01-09T08:11:42;2.13;;;1.10;;
12222;SDS011;6174;49.058;8.524;2023-01-09T08:14:09;1.73;;;1.00;;
12222;SDS011;6174;49.058;8.524;2023-01-09T08:16:35;2.00;;;0.80;;
12222;SDS011;6174;49.058;8.524;2023-01-09T08:19:02;1.63;;;0.73;;
12222;SDS011;6174;49.058;8.524;2023-01-09T08:21:29;2.73;;;1.07;;
12222;SDS011;6174;49.058;8.524;2023-01-09T08:23:56;1.00;;;0.90;;
12222;SDS011;6174;49.058;8.524;2023-01-09T08:26:24;2.40;;;0.83;;
12222;SDS011;6174;49.058;8.524;2023-01-09T08:28:51;2.47;;;0.97;;
12222;SDS011;6174;49.058;8.524;2023-01-09T08:31:18;2.90;;;1.00;;
12222;SDS011;6174;49.058;8.524;2023-01-09T08:33:45;1.90;;;0.90;;
12222;SDS011;6174;49.058;8.524;2023-01-09T08:36:11;2.60;;;1.07;;
12222;SDS011;6174;49.058;8.524;2023-01-09T08:38:38;2.47;;;0.90;;
12222;SDS011;6174;49.058;8.524;2023-01-09T08:41:05;2.80;;;0.60;;
12222;SDS011;6174;49.058;8.524;2023-01-09T08:43:47;0.90;;;0.63;;
12222;SDS011;6174;49.058;8.524;2023-01-09T08:46:31;1.03;;;0.70;;
12222;SDS011;6174;49.058;8.524;2023-01-09T08:49:16;1.97;;;0.90;;
12222;SDS011;6174;49.058;8.524;2023-01-09T08:51:42;2.63;;;0.90;;
12222;SDS011;6174;49.058;8.524;2023-01-09T08:54:09;2.13;;;0.60;;
12222;SDS011;6174;49.058;8.524;2023-01-09T08:56:36;2.30;;;0.90;;
12222;SDS011;6174;49.058;8.524;2023-01-09T08:59:04;1.30;;;0.60;;
12222;SDS011;6174;49.058;8.524;2023-01-09T09:01:31;1.27;;;0.80;;
12222;SDS011;6174;49.058;8.524;2023-01-09T09:03:58;1.00;;;0.70;;
12222;SDS011;6174;49.058;8.524;2023-01-09T09:06:25;2.27;;;0.90;;
12222;SDS011;6174;49.058;8.524;2023-01-09T09:08:52;2.83;;;1.23;;
12222;SDS011;6174;49.058;8.524;2023-01-09T09:11:18;2.70;;;0.97;;
12222;SDS011;6174;49.058;8.524;2023-01-09T09:13:45;1.37;;;0.90;;
12222;SDS011;6174;49.058;8.524;2023-01-09T09:16:13;1.50;;;0.90;;
12222;SDS011;6174;49.058;8.524;2023-01-09T09:18:40;0.83;;;0.80;;
12222;SDS011;6174;49.058;8.524;2023-01-09T09:21:07;0.93;;;0.53;;
12222;SDS011;6174;49.058;8.524;2023-01-09T09:23:35;1.07;;;0.60;;
12222;SDS011;6174;49.058;8.524;2023-01-09T09:26:02;1.07;;;0.80;;
12222;SDS011;6174;49.058;8.524;2023-01-09T09:28:28;2.07;;;1.07;;
12222;SDS011;6174;49.058;8.524;2023-01-09T09:30:55;2.17;;;0.97;;
12222;SDS011;6174;49.058;8.524;2023-01-09T09:33:23;1.23;;;0.47;;
12222;SDS011;6174;49.058;8.524;2023-01-09T09:35:50;1.57;;;0.80;;
12222;SDS011;6174;49.058;8.524;2023-01-09T09:38:17;1.60;;;0.57;;
12222;SDS011;6174;49.058;8.524;2023-01-09T09:40:52;3.10;;;1.27;;
12222;SDS011;6174;49.058;8.524;2023-01-09T09:43:51;2.87;;;1.40;;
12222;SDS011;6174;49.058;8.524;2023-01-09T09:46:49;1.23;;;0.80;;
12222;SDS011;6174;49.058;8.524;2023-01-09T09:49:25;0.93;;;0.60;;
12222;SDS011;6174;49.058;8.524;2023-01-09T09:51:59;1.97;;;0.90;;
12222;SDS011;6174;49.058;8.524;2023-01-09T09:54:34;1.90;;;0.70;;
12222;SDS011;6174;49.058;8.524;2023-01-09T09:57:08;1.47;;;0.97;;
12222;SDS011;6174;49.058;8.524;2023-01-09T09:59:38;2.20;;;0.80;;
12222;SDS011;6174;49.058;8.524;2023-01-09T10:02:11;1.93;;;1.07;;
12222;SDS011;6174;49.058;8.524;2023-01-09T10:04:50;2.23;;;0.80;;
12222;SDS011;6174;49.058;8.524;2023-01-09T10:07:26;2.40;;;0.73;;
12222;SDS011;6174;49.058;8.524;2023-01-09T10:09:56;1.33;;;1.13;;
12222;SDS011;6174;49.058;8.524;2023-01-09T10:12:31;1.97;;;0.90;;
12222;SDS011;6174;49.058;8.524;2023-01-09T10:15:08;1.63;;;0.87;;
12222;SDS011;6174;49.058;8.524;2023-01-09T10:17:45;0.97;;;0.83;;
12222;SDS011;6174;49.058;8.524;2023-01-09T10:20:32;2.23;;;1.07;;
12222;SDS011;6174;49.058;8.524;2023-01-09T10:23:18;1.50;;;0.60;;
12222;SDS011;6174;49.058;8.524;2023-01-09T10:25:54;0.67;;;0.63;;
12222;SDS011;6174;49.058;8.524;2023-01-09T10:28:31;2.80;;;0.60;;
12222;SDS011;6174;49.058;8.524;2023-01-09T10:31:13;3.53;;;1.60;;
12222;SDS011;6174;49.058;8.524;2023-01-09T10:33:50;1.50;;;0.90;;
12222;SDS011;6174;49.058;8.524;2023-01-09T10:36:31;1.70;;;0.90;;
12222;SDS011;6174;49.058;8.524;2023-01-09T10:39:19;0.90;;;0.80;;
12222;SDS011;6174;49.058;8.524;2023-01-09T10:41:50;2.47;;;1.50;;
12222;SDS011;6174;49.058;8.524;2023-01-09T10:44:23;4.00;;;1.10;;
12222;SDS011;6174;49.058;8.524;2023-01-09T10:46:58;3.90;;;1.57;;
12222;SDS011;6174;49.058;8.524;2023-01-09T10:49:26;4.33;;;1.90;;
12222;SDS011;6174;49.058;8.524;2023-01-09T10:51:57;4.60;;;1.90;;
12222;SDS011;6174;49.058;8.524;2023-01-09T10:54:37;2.67;;;1.37;;
12222;SDS011;6174;49.058;8.524;2023-01-09T10:57:09;1.23;;;0.87;;
12222;SDS011;6174;49.058;8.524;2023-01-09T10:59:40;1.43;;;1.20;;
12222;SDS011;6174;49.058;8.524;2023-01-09T11:02:08;2.67;;;1.20;;
12222;SDS011;6174;49.058;8.524;2023-01-09T11:04:49;1.43;;;1.00;;
12222;SDS011;6174;49.058;8.524;2023-01-09T11:07:18;1.77;;;0.63;;
12222;SDS011;6174;49.058;8.524;2023-01-09T11:09:54;2.20;;;0.70;;
12222;SDS011;6174;49.058;8.524;2023-01-09T11:12:23;0.80;;;0.80;;
12222;SDS011;6174;49.058;8.524;2023-01-09T11:14:51;3.07;;;1.20;;
12222;SDS011;6174;49.058;8.524;2023-01-09T11:17:19;3.00;;;0.90;;
12222;SDS011;6174;49.058;8.524;2023-01-09T11:19:59;2.00;;;1.03;;
12222;SDS011;6174;49.058;8.524;2023-01-09T11:22:28;3.13;;;1.00;;
12222;SDS011;6174;49.058;8.524;2023-01-09T11:25:10;1.50;;;0.60;;
12222;SDS011;6174;49.058;8.524;2023-01-09T11:27:38;2.33;;;0.90;;
12222;SDS011;6174;49.058;8.524;2023-01-09T11:30:18;1.27;;;0.80;;
12222;SDS011;6174;49.058;8.524;2023-01-09T11:32:50;2.30;;;0.80;;
12222;SDS011;6174;49.058;8.524;2023-01-09T11:35:18;0.93;;;0.70;;
12222;SDS011;6174;49.058;8.524;2023-01-09T11:37:55;2.67;;;0.90;;
12222;SDS011;6174;49.058;8.524;2023-01-09T11:40:25;1.97;;;0.90;;
12222;SDS011;6174;49.058;8.524;2023-01-09T11:43:07;1.80;;;0.87;;
12222;SDS011;6174;49.058;8.524;2023-01-09T11:45:47;2.90;;;0.80;;
12222;SDS011;6174;49.058;8.524;2023-01-09T11:48:29;0.93;;;0.60;;
12222;SDS011;6174;49.058;8.524;2023-01-09T11:50:59;1.43;;;0.90;;
12222;SDS011;6174;49.058;8.524;2023-01-09T11:53:28;2.43;;;0.60;;
12222;SDS011;6174;49.058;8.524;2023-01-09T11:56:10;2.23;;;0.90;;
12222;SDS011;6174;49.058;8.524;2023-01-09T11:58:39;1.63;;;0.97;;
12222;SDS011;6174;49.058;8.524;2023-01-09T12:01:11;2.50;;;1.00;;
12222;SDS011;6174;49.058;8.524;2023-01-09T12:03:52;1.20;;;0.67;;
12222;SDS011;6174;49.058;8.524;2023-01-09T12:06:34;2.00;;;1.10;;
12222;SDS011;6174;49.058;8.524;2023-01-09T12:09:13;2.40;;;1.17;;
12222;SDS011;6174;49.058;8.524;2023-01-09T12:11:46;3.80;;;1.13;;
12222;SDS011;6174;49.058;8.524;2023-01-09T12:14:27;2.17;;;0.90;;
12222;SDS011;6174;49.058;8.524;2023-01-09T12:17:11;1.97;;;0.80;;
12222;SDS011;6174;49.058;8.524;2023-01-09T12:19:59;3.43;;;1.13;;
12222;SDS011;6174;49.058;8.524;2023-01-09T12:22:43;1.83;;;1.10;;
12222;SDS011;6174;49.058;8.524;2023-01-09T12:25:19;1.13;;;1.00;;
12222;SDS011;6174;49.058;8.524;2023-01-09T12:28:05;1.57;;;1.00;;
12222;SDS011;6174;49.058;8.524;2023-01-09T12:30:48;1.70;;;1.17;;
12222;SDS011;6174;49.058;8.524;2023-01-09T12:33:27;2.83;;;1.20;;
12222;SDS011;6174;49.058;8.524;2023-01-09T12:36:10;3.97;;;1.40;;
12222;SDS011;6174;49.058;8.524;2023-01-09T12:38:45;2.20;;;1.37;;
12222;SDS011;6174;49.058;8.524;2023-01-09T12:41:22;5.20;;;1.47;;
12222;SDS011;6174;49.058;8.524;2023-01-09T12:44:15;2.07;;;1.00;;
12222;SDS011;6174;49.058;8.524;2023-01-09T12:47:01;1.33;;;1.00;;
12222;SDS011;6174;49.058;8.524;2023-01-09T12:49:47;4.23;;;1.33;;
12222;SDS011;6174;49.058;8.524;2023-01-09T12:52:27;2.57;;;1.30;;
12222;SDS011;6174;49.058;8.524;2023-01-09T12:55:11;4.63;;;1.70;;
12222;SDS011;6174;49.058;8.524;2023-01-09T12:57:45;2.23;;;1.50;;
12222;SDS011;6174;49.058;8.524;2023-01-09T13:00:15;2.60;;;1.40;;
12222;SDS011;6174;49.058;8.524;2023-01-09T13:02:47;4.23;;;2.20;;
12222;SDS011;6174;49.058;8.524;2023-01-09T13:05:21;2.23;;;1.20;;
12222;SDS011;6174;49.058;8.524;2023-01-09T13:07:50;3.80;;;1.40;;
12222;SDS011;6174;49.058;8.524;2023-01-09T13:10:22;2.57;;;1.33;;
12222;SDS011;6174;49.058;8.524;2023-01-09T13:12:56;2.80;;;1.60;;
12222;SDS011;6174;49.058;8.524;2023-01-09T13:15:25;4.00;;;1.50;;
12222;SDS011;6174;49.058;8.524;2023-01-09T13:17:55;2.83;;;1.20;;
12222;SDS011;6174;49.058;8.524;2023-01-09T13:20:28;1.80;;;1.10;;
12222;SDS011;6174;49.058;8.524;2023-01-09T13:22:59;1.70;;;1.13;;
12222;SDS011;6174;49.058;8.524;2023-01-09T13:25:31;2.80;;;1.43;;
12222;SDS011;6174;49.058;8.524;2023-01-09T13:28:04;2.33;;;1.20;;
12222;SDS011;6174;49.058;8.524;2023-01-09T13:30:39;2.13;;;1.00;;
12222;SDS011;6174;49.058;8.524;2023-01-09T13:33:25;2.47;;;1.13;;
12222;SDS011;6174;49.058;8.524;2023-01-09T13:35:55;3.50;;;1.30;;
12222;SDS011;6174;49.058;8.524;2023-01-09T13:38:27;1.47;;;1.00;;
12222;SDS011;6174;49.058;8.524;2023-01-09T13:41:09;2.30;;;1.27;;
12222;SDS011;6174;49.058;8.524;2023-01-09T13:43:57;1.73;;;1.27;;
12222;SDS011;6174;49.058;8.524;2023-01-09T13:46:33;3.07;;;1.17;;
12222;SDS011;6174;49.058;8.524;2023-01-09T13:49:02;2.10;;;1.33;;
12222;SDS011;6174;49.058;8.524;2023-01-09T13:51:36;2.43;;;0.90;;
12222;SDS011;6174;49.058;8.524;2023-01-09T13:57:26;1.87;;;1.00;;
12222;SDS011;6174;49.058;8.524;2023-01-09T13:59:58;2.63;;;1.27;;
12222;SDS011;6174;49.058;8.524;2023-01-09T14:03:12;3.07;;;0.93;;
12222;SDS011;6174;49.058;8.524;2023-01-09T14:08:40;4.00;;;1.57;;
12222;SDS011;6174;49.058;8.524;2023-01-09T14:11:08;2.83;;;1.40;;
12222;SDS011;6174;49.058;8.524;2023-01-09T14:13:44;1.97;;;1.40;;
12222;SDS011;6174;49.058;8.524;2023-01-09T14:16:14;1.50;;;1.00;;
12222;SDS011;6174;49.058;8.524;2023-01-09T14:18:47;3.60;;;0.90;;
12222;SDS011;6174;49.058;8.524;2023-01-09T14:21:16;1.57;;;1.30;;
12222;SDS011;6174;49.058;8.524;2023-01-09T14:23:48;2.00;;;0.73;;
12222;SDS011;6174;49.058;8.524;2023-01-09T14:26:19;1.17;;;1.00;;
12222;SDS011;6174;49.058;8.524;2023-01-09T14:28:47;2.60;;;1.00;;
12222;SDS011;6174;49.058;8.524;2023-01-09T14:31:26;2.30;;;0.80;;
12222;SDS011;6174;49.058;8.524;2023-01-09T14:36:52;1.17;;;0.60;;
12222;SDS011;6174;49.058;8.524;2023-01-09T14:39:22;1.77;;;0.77;;
12222;SDS011;6174;49.058;8.524;2023-01-09T14:41:49;1.47;;;0.70;;
12222;SDS011;6174;49.058;8.524;2023-01-09T14:44:26;1.33;;;0.50;;
12222;SDS011;6174;49.058;8.524;2023-01-09T14:46:54;1.20;;;0.60;;
12222;SDS011;6174;49.058;8.524;2023-01-09T14:49:29;1.30;;;0.77;;
12222;SDS011;6174;49.058;8.524;2023-01-09T14:51:59;1.03;;;0.80;;
12222;SDS011;6174;49.058;8.524;2023-01-09T14:54:30;1.63;;;0.87;;
12222;SDS011;6174;49.058;8.524;2023-01-09T14:57:01;1.87;;;0.83;;
12222;SDS011;6174;49.058;8.524;2023-01-09T14:59:28;1.77;;;0.90;;
12222;SDS011;6174;49.058;8.524;2023-01-09T15:01:55;1.43;;;0.70;;
12222;SDS011;6174;49.058;8.524;2023-01-09T15:04:25;1.00;;;0.83;;
12222;SDS011;6174;49.058;8.524;2023-01-09T15:06:58;2.83;;;0.97;;
12222;SDS011;6174;49.058;8.524;2023-01-09T15:09:26;1.83;;;0.77;;
12222;SDS011;6174;49.058;8.524;2023-01-09T15:11:58;1.17;;;0.73;;
12222;SDS011;6174;49.058;8.524;2023-01-09T15:14:30;4.47;;;0.97;;
12222;SDS011;6174;49.058;8.524;2023-01-09T15:17:00;3.13;;;0.80;;
12222;SDS011;6174;49.058;8.524;2023-01-09T15:19:30;0.73;;;0.70;;
12222;SDS011;6174;49.058;8.524;2023-01-09T15:21:58;2.43;;;1.17;;
12222;SDS011;6174;49.058;8.524;2023-01-09T15:24:27;1.50;;;0.70;;
12222;SDS011;6174;49.058;8.524;2023-01-09T15:26:55;1.50;;;0.80;;
12222;SDS011;6174;49.058;8.524;2023-01-09T15:29:24;2.30;;;0.70;;
12222;SDS011;6174;49.058;8.524;2023-01-09T15:31:52;2.10;;;0.90;;
12222;SDS011;6174;49.058;8.524;2023-01-09T15:34:21;1.53;;;0.60;;
12222;SDS011;6174;49.058;8.524;2023-01-09T15:36:50;1.27;;;1.00;;
12222;SDS011;6174;49.058;8.524;2023-01-09T15:39:19;1.53;;;0.90;;
12222;SDS011;6174;49.058;8.524;2023-01-09T15:41:50;1.10;;;1.00;;
12222;SDS011;6174;49.058;8.524;2023-01-09T15:44:36;1.83;;;1.13;;
12222;SDS011;6174;49.058;8.524;2023-01-09T15:47:06;1.00;;;0.90;;
12222;SDS011;6174;49.058;8.524;2023-01-09T15:49:38;1.80;;;1.23;;
12222;SDS011;6174;49.058;8.524;2023-01-09T15:52:08;1.30;;;1.10;;
12222;SDS011;6174;49.058;8.524;2023-01-09T15:54:39;2.43;;;1.10;;
12222;SDS011;6174;49.058;8.524;2023-01-09T15:57:28;3.53;;;2.10;;
12222;SDS011;6174;49.058;8.524;2023-01-09T16:03:00;2.60;;;1.70;;
12222;SDS011;6174;49.058;8.524;2023-01-09T16:05:40;1.83;;;1.20;;
12222;SDS011;6174;49.058;8.524;2023-01-09T16:08:20;14.50;;;7.87;;
12222;SDS011;6174;49.058;8.524;2023-01-09T16:10:50;16.40;;;10.03;;
12222;SDS011;6174;49.058;8.524;2023-01-09T16:13:22;6.10;;;3.57;;
12222;SDS011;6174;49.058;8.524;2023-01-09T16:15:50;4.73;;;3.87;;
12222;SDS011;6174;49.058;8.524;2023-01-09T16:18:19;4.70;;;2.90;;
12222;SDS011;6174;49.058;8.524;2023-01-09T16:21:03;5.10;;;3.13;;
12222;SDS011;6174;49.058;8.524;2023-01-09T16:23:53;4.63;;;3.40;;
12222;SDS011;6174;49.058;8.524;2023-01-09T16:26:22;3.63;;;2.03;;
12222;SDS011;6174;49.058;8.524;2023-01-09T16:28:50;2.50;;;1.33;;
12222;SDS011;6174;49.058;8.524;2023-01-09T16:31:19;1.50;;;1.40;;
12222;SDS011;6174;49.058;8.524;2023-01-09T16:33:49;2.63;;;1.10;;
12222;SDS011;6174;49.058;8.524;2023-01-09T16:36:21;5.10;;;2.80;;
12222;SDS011;6174;49.058;8.524;2023-01-09T16:38:48;2.83;;;2.00;;
12222;SDS011;6174;49.058;8.524;2023-01-09T16:41:17;1.73;;;1.20;;
12222;SDS011;6174;49.058;8.524;2023-01-09T16:44:03;1.47;;;1.13;;
12222;SDS011;6174;49.058;8.524;2023-01-09T16:46:33;2.77;;;1.47;;
12222;SDS011;6174;49.058;8.524;2023-01-09T16:49:05;2.80;;;1.43;;
12222;SDS011;6174;49.058;8.524;2023-01-09T16:51:43;1.77;;;1.10;;
12222;SDS011;6174;49.058;8.524;2023-01-09T16:54:10;0.87;;;0.73;;
12222;SDS011;6174;49.058;8.524;2023-01-09T16:56:38;2.03;;;1.20;;
12222;SDS011;6174;49.058;8.524;2023-01-09T16:59:09;3.83;;;1.50;;
12222;SDS011;6174;49.058;8.524;2023-01-09T17:01:37;1.00;;;1.00;;
12222;SDS011;6174;49.058;8.524;2023-01-09T17:04:08;2.57;;;1.80;;
12222;SDS011;6174;49.058;8.524;2023-01-09T17:06:36;2.27;;;1.33;;
12222;SDS011;6174;49.058;8.524;2023-01-09T17:09:03;3.17;;;1.47;;
12222;SDS011;6174;49.058;8.524;2023-01-09T17:11:30;2.03;;;1.70;;
12222;SDS011;6174;49.058;8.524;2023-01-09T17:13:58;2.50;;;1.40;;
12222;SDS011;6174;49.058;8.524;2023-01-09T17:16:26;2.50;;;0.67;;
12222;SDS011;6174;49.058;8.524;2023-01-09T17:18:53;1.33;;;1.23;;
12222;SDS011;6174;49.058;8.524;2023-01-09T17:21:21;2.07;;;1.67;;
12222;SDS011;6174;49.058;8.524;2023-01-09T17:23:48;1.20;;;1.00;;
12222;SDS011;6174;49.058;8.524;2023-01-09T17:26:36;0.97;;;0.97;;
12222;SDS011;6174;49.058;8.524;2023-01-09T17:29:23;1.40;;;1.10;;
12222;SDS011;6174;49.058;8.524;2023-01-09T17:31:50;2.60;;;0.80;;
12222;SDS011;6174;49.058;8.524;2023-01-09T17:34:17;1.63;;;1.00;;
12222;SDS011;6174;49.058;8.524;2023-01-09T17:36:43;1.13;;;0.93;;
12222;SDS011;6174;49.058;8.524;2023-01-09T17:39:11;0.90;;;0.90;;
12222;SDS011;6174;49.058;8.524;2023-01-09T17:41:38;1.83;;;1.03;;
12222;SDS011;6174;49.058;8.524;2023-01-09T17:44:05;3.00;;;1.27;;
12222;SDS011;6174;49.058;8.524;2023-01-09T17:46:34;2.50;;;1.43;;
12222;SDS011;6174;49.058;8.524;2023-01-09T17:49:03;1.87;;;1.50;;
12222;SDS011;6174;49.058;8.524;2023-01-09T17:51:30;2.80;;;1.37;;
12222;SDS011;6174;49.058;8.524;2023-01-09T17:53:58;1.30;;;1.17;;
12222;SDS011;6174;49.058;8.524;2023-01-09T17:56:25;2.67;;;1.50;;
12222;SDS011;6174;49.058;8.524;2023-01-09T17:58:54;2.10;;;1.20;;
12222;SDS011;6174;49.058;8.524;2023-01-09T18:01:21;2.63;;;1.30;;
12222;SDS011;6174;49.058;8.524;2023-01-09T18:03:49;1.67;;;1.03;;
12222;SDS011;6174;49.058;8.524;2023-01-09T18:06:16;1.60;;;1.13;;
12222;SDS011;6174;49.058;8.524;2023-01-09T18:08:45;2.50;;;1.13;;
12222;SDS011;6174;49.058;8.524;2023-01-09T18:11:12;1.87;;;1.23;;
12222;SDS011;6174;49.058;8.524;2023-01-09T18:13:41;1.63;;;1.47;;
12222;SDS011;6174;49.058;8.524;2023-01-09T18:16:08;2.67;;;1.53;;
12222;SDS011;6174;49.058;8.524;2023-01-09T18:18:36;2.13;;;1.17;;
12222;SDS011;6174;49.058;8.524;2023-01-09T18:21:06;1.37;;;0.93;;
12222;SDS011;6174;49.058;8.524;2023-01-09T18:23:33;1.30;;;1.20;;
12222;SDS011;6174;49.058;8.524;2023-01-09T18:26:03;2.70;;;1.30;;
12222;SDS011;6174;49.058;8.524;2023-01-09T18:28:30;4.13;;;1.80;;
12222;SDS011;6174;49.058;8.524;2023-01-09T18:30:57;1.80;;;1.30;;
12222;SDS011;6174;49.058;8.524;2023-01-09T18:33:24;2.57;;;1.47;;
12222;SDS011;6174;49.058;8.524;2023-01-09T18:35:51;1.40;;;1.30;;
12222;SDS011;6174;49.058;8.524;2023-01-09T18:38:19;1.77;;;1.67;;
12222;SDS011;6174;49.058;8.524;2023-01-09T18:40:45;3.37;;;2.10;;
12222;SDS011;6174;49.058;8.524;2023-01-09T18:43:13;2.37;;;1.57;;
12222;SDS011;6174;49.058;8.524;2023-01-09T18:45:40;2.33;;;1.33;;
12222;SDS011;6174;49.058;8.524;2023-01-09T18:48:07;3.20;;;1.47;;
12222;SDS011;6174;49.058;8.524;2023-01-09T18:50:35;1.50;;;1.40;;
12222;SDS011;6174;49.058;8.524;2023-01-09T18:53:01;2.30;;;1.63;;
12222;SDS011;6174;49.058;8.524;2023-01-09T18:55:29;1.30;;;1.20;;
12222;SDS011;6174;49.058;8.524;2023-01-09T18:57:56;1.87;;;1.50;;
12222;SDS011;6174;49.058;8.524;2023-01-09T19:00:23;1.37;;;1.20;;
12222;SDS011;6174;49.058;8.524;2023-01-09T19:02:50;3.10;;;2.20;;
12222;SDS011;6174;49.058;8.524;2023-01-09T19:05:16;1.83;;;1.63;;
12222;SDS011;6174;49.058;8.524;2023-01-09T19:07:43;2.23;;;1.37;;
12222;SDS011;6174;49.058;8.524;2023-01-09T19:10:10;1.70;;;1.40;;
12222;SDS011;6174;49.058;8.524;2023-01-09T19:12:38;2.47;;;1.30;;
12222;SDS011;6174;49.058;8.524;2023-01-09T19:15:05;1.77;;;1.63;;
12222;SDS011;6174;49.058;8.524;2023-01-09T19:17:35;1.93;;;1.83;;
12222;SDS011;6174;49.058;8.524;2023-01-09T19:20:02;2.93;;;1.70;;
12222;SDS011;6174;49.058;8.524;2023-01-09T19:22:30;1.77;;;1.67;;
12222;SDS011;6174;49.058;8.524;2023-01-09T19:24:57;2.03;;;1.67;;
12222;SDS011;6174;49.058;8.524;2023-01-09T19:27:23;1.50;;;1.40;;
12222;SDS011;6174;49.058;8.524;2023-01-09T19:29:51;2.37;;;1.77;;
12222;SDS011;6174;49.058;8.524;2023-01-09T19:32:18;2.17;;;1.80;;
12222;SDS011;6174;49.058;8.524;2023-01-09T19:34:46;1.90;;;1.80;;
12222;SDS011;6174;49.058;8.524;2023-01-09T19:37:12;1.73;;;1.50;;
12222;SDS011;6174;49.058;8.524;2023-01-09T19:39:39;3.50;;;1.97;;
12222;SDS011;6174;49.058;8.524;2023-01-09T19:42:06;2.33;;;1.40;;
12222;SDS011;6174;49.058;8.524;2023-01-09T19:44:33;2.60;;;1.70;;
12222;SDS011;6174;49.058;8.524;2023-01-09T19:47:01;2.37;;;1.70;;
12222;SDS011;6174;49.058;8.524;2023-01-09T19:49:28;2.43;;;1.97;;
12222;SDS011;6174;49.058;8.524;2023-01-09T19:51:56;3.07;;;2.03;;
12222;SDS011;6174;49.058;8.524;2023-01-09T19:54:24;2.03;;;1.80;;
12222;SDS011;6174;49.058;8.524;2023-01-09T19:56:52;4.43;;;2.90;;
12222;SDS011;6174;49.058;8.524;2023-01-09T19:59:19;3.87;;;2.40;;
12222;SDS011;6174;49.058;8.524;2023-01-09T20:01:46;3.10;;;2.30;;
12222;SDS011;6174;49.058;8.524;2023-01-09T20:04:14;2.93;;;2.53;;
12222;SDS011;6174;49.058;8.524;2023-01-09T20:06:43;3.40;;;2.27;;
12222;SDS011;6174;49.058;8.524;2023-01-09T20:09:11;2.90;;;2.70;;
12222;SDS011;6174;49.058;8.524;2023-01-09T20:11:39;4.17;;;2.33;;
12222;SDS011;6174;49.058;8.524;2023-01-09T20:14:08;3.77;;;2.87;;
12222;SDS011;6174;49.058;8.524;2023-01-09T20:16:37;2.90;;;2.60;;
12222;SDS011;6174;49.058;8.524;2023-01-09T20:19:03;2.47;;;2.27;;
12222;SDS011;6174;49.058;8.524;2023-01-09T20:21:34;2.57;;;2.30;;
12222;SDS011;6174;49.058;8.524;2023-01-09T20:24:01;4.23;;;2.50;;
12222;SDS011;6174;49.058;8.524;2023-01-09T20:26:30;2.97;;;2.40;;
12222;SDS011;6174;49.058;8.524;2023-01-09T20:28:57;2.83;;;2.20;;
12222;SDS011;6174;49.058;8.524;2023-01-09T20:31:25;3.17;;;2.13;;
12222;SDS011;6174;49.058;8.524;2023-01-09T20:33:55;3.47;;;2.30;;